Wenatchee, WA

6:52 PM PST on December 05, 2016 (GMT -0800)
3rd & Princeton | | Change Station
Active Advisory: Winter Weather Advisory

Elev 755 ft 47.43 °N, 120.33 °W | Updated 16 seconds ago

Light Snow
Light Snow Mist
29.8 °F
Feels Like 30 °F
N
0.0
Wind Variable Wind from NE

Today
High -- | Low -- °F
--% Chance of Precip.
Yesterday
High -- | Low -- °F
Precip. -- in
Pressure 30.02 in
Visibility 2.0 miles
Clouds Mostly Cloudy 400 ft
Overcast 700 ft
Windchill 30 °F
Dew Point 29 °F
Humidity 97%
Rainfall 0.00 in
Snow Depth Not available.
7:33 AM 4:11 PM
Waxing Crescent, 37% visible
SPECI KEAT 060205Z AUTO 28003KT 2SM -SN BR BKN004 OVC007 M02/M03 A3002 RMK AO2 P0001 T10221028
Pressure 30.02 in
Visibility 2.0 miles
Clouds Mostly Cloudy 400 ft
Overcast 700 ft
Windchill 30 °F
Dew Point 29 °F
Humidity 97%
Rainfall 0.00 in
Snow Depth Not available.
7:33 AM 4:11 PM
Waxing Crescent, 37% visible
SPECI KEAT 060205Z AUTO 28003KT 2SM -SN BR BKN004 OVC007 M02/M03 A3002 RMK AO2 P0001 T10221028

10-Day Weather Forecast

Almanac

Astronomy

Dec. 05, 2016 Rise Set
Actual Time
Civil Twilight
Nautical Twilight
Astronomical Twilight
Moon
Length of Visible Light
Length of Day
Tomorrow will be .
, % of the Moon is Illuminated

Today's Extremes

State Highs State Lows

Community

WunderPhotos

Upload Photos

1,955,908 photos uploaded!

WunderBlog® & News

Nearby

Air Quality

  Air Quality AQ Index Pollutant
Not available.

Snow Depth

Station Depth Elevation

Earthquake Activity

City Distance Mag. Time & Date
Minimum magnitude displayed is 2.5.

Coastal Water Temperatures

Place Temperature

Stations

Nearby Weather Stations

Station Location Temp. Windchill Dew Point Humidity Wind Precip. Elev Updated Type
                   

Watches & Warnings

Winter Weather Advisory
Issued: 2:19 PM PST Dec. 5, 2016 – National Weather Service

... Winter Weather Advisory remains in effect until 7 am PST
Tuesday...

* locations... Wenatchee, Chelan, Entiat, Cashmere, Waterville,
Mansfield, and Badger Mountain Road.

* Snow accumulations... 1 to 2 inches between now and 6 PM with an
additional inch after... for an overall total of 1 to 3 inches of
snow.

* Timing... snow of moderate intensity during the afternoon and
early evening commute... becoming lighter in intensity yet
continuing overnight and into Tuesday morning.

* Impacts... snow on roadways and decreased visibilities during
the afternoon and early evening commute make for difficult
travel conditions... use caution while driving.

* Web page: for a detailed view of the hazard area visit
http://www.Wrh.NOAA.Gov/map/?Wfo=otx.

Precautionary/preparedness actions...

A Winter Weather Advisory for snow means that periods of snow
will cause primarily travel difficulties. Be prepared for snow
covered roads and limited visibilities... and use caution while
driving.